MIDDLE PEAK RAWS NEAR KENTFIELD 2SW HADS current weather conditions

sailwx.info

Wind from 172 at 7 knots gusting 14

Air temperature 21.7° C
Dewpoint 11.1° C

Last reported at 2017-Aug-20 23:36 UTC.
Time now 2017-Aug-21 00:31 UTC

Location: N 37°56' W 122°35'.
View on Google Maps.

See reports from other nearby stations

  
Tides and Currents Weather Stations Pressure Air Temp Water Temp Dewpoint Dewpoint Depression Visibility Wind Speed Wind Dir Waves Ship Positions
date/time (UTC)wind fromknots sea level pressurealtimeterstation pressurevisibilityair tempwater tempwave heightnotes
2017-Aug-20 23:36 172 7 gusting 14 21.7
2017-Aug-20 22:36 166 4 gusting 10 22.2
2017-Aug-20 21:36 197 6 gusting 15 21.1
2017-Aug-20 20:36 212 5 gusting 10 20.0
2017-Aug-20 19:36 189 4 gusting 12 18.3
2017-Aug-20 18:36 199 7 gusting 14 14.4
2017-Aug-20 17:36 198 10 gusting 14 12.2
2017-Aug-20 16:36 204 12 gusting 15 11.7
2017-Aug-20 15:36 205 13 gusting 16 11.1
2017-Aug-20 14:36 203 13 gusting 15 10.6
2017-Aug-20 13:36 197 13 gusting 15 10.6
2017-Aug-20 12:36 188 9 gusting 13 12.8
2017-Aug-20 11:36 194 10 gusting 15 10.0
2017-Aug-20 10:36 203 12 gusting 15 10.0
2017-Aug-20 09:36 209 4 gusting 15 11.1
2017-Aug-20 08:36 202 11 gusting 15 10.6
2017-Aug-20 07:36 294 1 gusting 6 21.1
2017-Aug-20 06:36 280 5 gusting 10 21.7
2017-Aug-20 05:36 271 6 gusting 7 21.1
2017-Aug-20 04:36 267 4 gusting 6 21.7
2017-Aug-20 03:36 283 5 gusting 6 22.8
2017-Aug-20 02:36 269 5 gusting 6 22.8
2017-Aug-20 01:36 229 0 gusting 3 22.2
2017-Aug-20 00:36 304 2 gusting 5 24.4
2017-Aug-19 23:36 330 3 gusting 6 25.0
2017-Aug-19 22:36 322 3 gusting 5 25.0
2017-Aug-19 21:36 328 3 gusting 6 24.4
2017-Aug-19 20:36 321 2 gusting 6 25.6
2017-Aug-19 19:36 324 3 gusting 5 25.0
2017-Aug-19 18:36 005 2 gusting 5 26.7
2017-Aug-19 17:36 005 3 gusting 6 27.2
2017-Aug-19 16:36 343 2 gusting 5 25.0
2017-Aug-19 15:36 060 4 gusting 6 26.1
2017-Aug-19 14:36 011 5 gusting 6 25.0
2017-Aug-19 13:36 352 5 gusting 8 23.3
2017-Aug-19 12:36 320 7 gusting 9 20.6
2017-Aug-19 11:36 295 5 gusting 9 21.1
2017-Aug-19 10:36 294 7 gusting 11 23.9
2017-Aug-19 09:36 286 5 gusting 8 26.1
2017-Aug-19 08:36 290 6 gusting 9 25.6
2017-Aug-19 07:36 280 3 gusting 6 25.6
2017-Aug-19 06:36 272 1 gusting 7 25.0
2017-Aug-19 05:36 293 5 gusting 7 25.0
2017-Aug-19 04:36 214 6 gusting 6 25.0
2017-Aug-19 03:36 279 3 gusting 6 26.1
2017-Aug-19 02:36 280 4 gusting 6 26.7
2017-Aug-19 01:36 259 3 gusting 6 28.9
2017-Aug-19 00:36 191 3 gusting 6 29.4